createdAt,value
2019-02-04T00:02:59.942Z,78.47
2019-02-04T00:08:21.538Z,78.55
2019-02-04T00:10:49.941Z,78.56
2019-02-04T00:13:18.370Z,78.65
2019-02-04T00:16:06.055Z,78.68
2019-02-04T00:18:34.449Z,78.65
2019-02-04T00:21:04.643Z,78.66
2019-02-04T00:23:33.069Z,78.69
2019-02-04T00:26:13.537Z,78.68
2019-02-04T00:28:41.966Z,78.68
2019-02-04T00:31:29.696Z,78.69
2019-02-04T00:36:32.637Z,78.69
2019-02-04T00:39:02.547Z,78.67
2019-02-04T00:41:31.228Z,78.67
2019-02-04T00:43:59.624Z,78.65
2019-02-04T00:49:02.056Z,78.59
2019-02-04T00:51:49.682Z,78.52
2019-02-04T00:54:18.257Z,78.46
2019-02-04T00:56:49.176Z,78.44
2019-02-04T00:59:17.678Z,78.42
2019-02-04T01:02:05.421Z,78.45
2019-02-04T01:12:22.079Z,78.44
2019-02-04T01:17:47.080Z,78.43
2019-02-04T01:20:36.859Z,78.30
2019-02-04T01:23:24.485Z,78.19
2019-02-04T01:26:32.799Z,78.20
2019-02-04T01:29:01.245Z,78.25
2019-02-04T01:31:29.655Z,78.21
2019-02-04T01:33:58.045Z,78.22
2019-02-04T01:36:26.511Z,78.23
2019-02-04T01:38:56.634Z,78.22
2019-02-04T01:41:25.033Z,78.25
2019-02-04T01:51:41.689Z,78.05
2019-02-04T01:54:10.091Z,78.08
2019-02-04T01:56:57.709Z,78.08
2019-02-04T01:59:26.113Z,78.16
2019-02-04T02:01:54.511Z,78.15
2019-02-04T02:06:57.182Z,78.03
2019-02-04T02:11:59.217Z,78.08
2019-02-04T02:14:27.645Z,78.04
2019-02-04T02:17:35.959Z,78.00
2019-02-04T02:20:46.044Z,78.00
2019-02-04T02:23:14.437Z,77.95
2019-02-04T02:25:42.869Z,77.81
2019-02-04T02:30:44.901Z,77.85
2019-02-04T02:33:32.727Z,77.89
2019-02-04T02:36:01.136Z,77.95
2019-02-04T02:38:29.534Z,77.94
2019-02-04T02:40:57.962Z,77.96
2019-02-04T02:43:26.366Z,78.01
2019-02-04T02:45:54.768Z,78.04
2019-02-04T02:48:42.454Z,78.02
2019-02-04T02:51:10.848Z,77.96
2019-02-04T02:53:39.257Z,78.00
2019-02-04T02:56:07.695Z,78.03
2019-02-04T02:58:36.107Z,78.05
2019-02-04T03:01:44.450Z,78.12
2019-02-04T03:09:55.226Z,77.77
2019-02-04T03:12:23.668Z,77.72
2019-02-04T03:14:52.070Z,77.67
2019-02-04T03:17:22.201Z,77.63
2019-02-04T03:19:50.642Z,77.64
2019-02-04T03:22:19.043Z,77.63
2019-02-04T03:24:47.444Z,77.62
2019-02-04T03:29:50.221Z,77.52
2019-02-04T03:32:33.089Z,77.53
2019-02-04T03:35:01.519Z,77.51
2019-02-04T03:37:29.920Z,77.53
2019-02-04T03:39:58.338Z,77.53
2019-02-04T03:42:26.768Z,77.50
2019-02-04T03:44:56.995Z,77.44
2019-02-04T03:50:02.953Z,77.41
2019-02-04T03:55:45.132Z,77.33
2019-02-04T04:00:47.957Z,77.38
2019-02-04T04:03:16.376Z,77.34
2019-02-04T04:05:44.765Z,77.30
2019-02-04T04:08:32.435Z,77.26
2019-02-04T04:11:00.839Z,77.17
2019-02-04T04:13:29.313Z,77.20
2019-02-04T04:18:32.210Z,77.12
2019-02-04T04:21:00.648Z,77.12
2019-02-04T04:23:29.042Z,77.08
2019-02-04T04:25:57.446Z,77.04
2019-02-04T04:28:45.070Z,77.08
2019-02-04T04:31:13.470Z,77.08
2019-02-04T04:33:53.644Z,77.10
2019-02-04T04:36:22.320Z,77.10
2019-02-04T04:38:50.720Z,77.08
2019-02-04T04:43:53.556Z,77.19
2019-02-04T04:46:21.981Z,77.25
2019-02-04T04:48:50.378Z,77.29
2019-02-04T04:51:18.773Z,77.23
2019-02-04T04:53:47.230Z,77.20
2019-02-04T04:56:15.584Z,77.22
2019-02-04T04:58:43.984Z,77.25
2019-02-04T05:01:12.429Z,77.34
2019-02-04T05:03:40.822Z,77.30
2019-02-04T05:06:30.179Z,77.25
2019-02-04T05:08:58.568Z,77.28
2019-02-04T05:11:26.968Z,77.37
2019-02-04T05:13:55.426Z,77.45
2019-02-04T05:16:23.820Z,77.37
2019-02-04T05:24:15.535Z,77.28
2019-02-04T05:26:45.686Z,77.21
2019-02-04T05:29:14.087Z,77.12
2019-02-04T05:31:42.494Z,77.04
2019-02-04T05:36:45.344Z,76.88
2019-02-04T05:41:47.442Z,76.97
2019-02-04T05:44:15.870Z,76.99
2019-02-04T05:46:44.277Z,77.10
2019-02-04T05:49:12.727Z,77.19
2019-02-04T05:51:41.180Z,77.19
2019-02-04T05:54:09.564Z,77.22
2019-02-04T05:56:37.962Z,77.20
2019-02-04T06:02:00.864Z,77.11
2019-02-04T06:04:29.264Z,77.03
2019-02-04T06:06:57.662Z,77.05
2019-02-04T06:09:26.096Z,77.07
2019-02-04T06:11:54.492Z,77.19
2019-02-04T06:14:22.890Z,77.30
2019-02-04T06:16:51.371Z,77.33
2019-02-04T06:19:19.772Z,77.33
2019-02-04T06:22:07.408Z,77.35
2019-02-04T06:24:35.819Z,77.32
2019-02-04T06:27:04.213Z,77.33
2019-02-04T06:32:06.316Z,77.41
2019-02-04T06:34:34.757Z,77.42
2019-02-04T06:37:03.156Z,77.42
2019-02-04T06:39:31.554Z,77.37
2019-02-04T06:41:59.984Z,77.37
2019-02-04T06:44:28.386Z,77.70
2019-02-04T06:46:58.513Z,77.98
2019-02-04T06:52:01.228Z,78.24
2019-02-04T06:57:03.612Z,77.93
2019-02-04T06:59:33.774Z,77.92
2019-02-04T07:02:21.369Z,77.85
2019-02-04T07:04:50.014Z,77.88
2019-02-04T07:07:18.420Z,77.90
2019-02-04T07:09:46.817Z,77.83
2019-02-04T07:14:50.597Z,77.64
2019-02-04T07:17:18.987Z,77.56
2019-02-04T07:19:47.429Z,77.39
2019-02-04T07:22:15.815Z,77.31
2019-02-04T07:24:44.212Z,77.26
2019-02-04T07:27:12.635Z,77.26
2019-02-04T07:29:41.043Z,77.24
2019-02-04T07:32:28.820Z,77.22
2019-02-04T07:38:45.356Z,77.11
2019-02-04T07:41:25.820Z,77.14
2019-02-04T07:43:54.245Z,77.13
2019-02-04T07:46:41.972Z,77.09
2019-02-04T07:49:10.396Z,77.05
2019-02-04T07:51:38.792Z,76.97
2019-02-04T07:54:07.196Z,76.88
2019-02-04T07:56:35.668Z,76.86
2019-02-04T07:59:23.297Z,76.81
2019-02-04T08:01:51.734Z,76.72
2019-02-04T08:04:20.133Z,76.72
2019-02-04T08:06:48.544Z,76.69
2019-02-04T08:09:16.974Z,76.64
2019-02-04T08:11:45.384Z,76.58
2019-02-04T08:19:46.863Z,76.33
2019-02-04T08:22:08.386Z,76.27
2019-02-04T08:24:36.797Z,76.26
2019-02-04T08:27:24.572Z,76.29
2019-02-04T08:29:52.968Z,76.30
2019-02-04T08:32:21.378Z,76.25
2019-02-04T08:34:51.511Z,76.24
2019-02-04T08:37:19.915Z,76.17
2019-02-04T08:39:48.318Z,76.08
2019-02-04T08:42:16.819Z,75.96
2019-02-04T08:45:04.488Z,75.92
2019-02-04T08:50:48.085Z,75.70
2019-02-04T08:55:50.533Z,75.36
2019-02-04T09:00:52.563Z,75.35
2019-02-04T09:03:20.980Z,75.30
2019-02-04T09:06:09.135Z,75.30
2019-02-04T09:08:37.536Z,75.24
2019-02-04T09:11:45.890Z,75.33
2019-02-04T09:17:41.888Z,75.18
2019-02-04T09:20:50.207Z,75.05
2019-02-04T09:23:18.636Z,74.98
2019-02-04T09:25:47.028Z,74.77
2019-02-04T09:28:34.979Z,74.73
2019-02-04T09:31:03.453Z,74.60
2019-02-04T09:33:51.222Z,74.50
2019-02-04T09:36:19.624Z,74.44
2019-02-04T09:38:48.028Z,74.31
2019-02-04T09:41:16.472Z,74.30
2019-02-04T09:49:08.397Z,73.91
2019-02-04T09:51:36.840Z,73.82
2019-02-04T09:54:45.148Z,73.74
2019-02-04T09:57:32.896Z,73.71
2019-02-04T10:00:03.021Z,73.72
2019-02-04T10:02:31.434Z,73.66
2019-02-04T10:07:33.805Z,73.42
2019-02-04T10:12:36.840Z,73.23
2019-02-04T10:15:45.953Z,73.12
2019-02-04T10:18:15.344Z,73.12
2019-02-04T10:21:03.142Z,73.11
2019-02-04T10:23:31.571Z,72.89
2019-02-04T10:26:00.031Z,72.63
2019-02-04T10:28:47.698Z,72.40
2019-02-04T10:31:35.399Z,72.21
2019-02-04T10:36:58.827Z,72.00
2019-02-04T10:39:27.268Z,71.95
2019-02-04T10:41:55.662Z,71.71
2019-02-04T10:44:24.127Z,71.50
2019-02-04T10:47:04.997Z,71.42
2019-02-04T10:49:52.623Z,71.27
2019-02-04T10:52:20.994Z,71.17
2019-02-04T10:54:49.391Z,71.01
2019-02-04T10:59:54.223Z,70.72
2019-02-04T11:02:22.727Z,70.65
2019-02-04T11:04:51.203Z,70.49
2019-02-04T11:07:19.565Z,70.18
2019-02-04T11:09:48.037Z,69.80
2019-02-04T11:12:18.166Z,69.53
2019-02-04T11:14:46.654Z,69.50
2019-02-04T11:17:34.398Z,69.31
2019-02-04T11:20:33.791Z,69.13
2019-02-04T11:25:26.320Z,68.69
2019-02-04T11:28:34.961Z,68.68
2019-02-04T11:31:22.698Z,68.60
2019-02-04T11:36:24.792Z,68.81
2019-02-04T11:38:53.166Z,68.80
2019-02-04T11:41:21.655Z,68.56
2019-02-04T11:43:50.055Z,68.18
2019-02-04T11:46:37.834Z,67.97
2019-02-04T11:49:18.121Z,67.82
2019-02-04T11:51:46.547Z,67.77
2019-02-04T11:54:14.998Z,67.54
2019-02-04T11:56:43.357Z,67.33
2019-02-04T11:59:13.514Z,67.24
2019-02-04T12:01:41.914Z,67.02
2019-02-04T12:04:29.537Z,67.02
2019-02-04T12:06:57.939Z,66.96
2019-02-04T12:09:26.347Z,67.01
2019-02-04T12:11:56.507Z,66.90
2019-02-04T12:14:24.911Z,66.61
2019-02-04T12:17:12.537Z,66.36
2019-02-04T12:19:40.940Z,66.23
2019-02-04T12:22:11.053Z,66.20
2019-02-04T12:24:39.497Z,66.29
2019-02-04T12:27:32.055Z,66.07
2019-02-04T12:29:57.381Z,66.00
2019-02-04T12:32:25.788Z,66.09
2019-02-04T12:34:54.181Z,65.95
2019-02-04T12:37:41.911Z,65.80
2019-02-04T12:40:50.245Z,65.74
2019-02-04T12:43:21.160Z,65.51
2019-02-04T12:45:48.861Z,65.51
2019-02-04T12:48:36.689Z,65.30
2019-02-04T12:51:17.249Z,64.99
2019-02-04T12:53:45.716Z,64.82
2019-02-04T12:56:14.105Z,64.82
2019-02-04T12:58:42.509Z,64.69
2019-02-04T13:03:46.361Z,64.16
2019-02-04T13:09:07.785Z,64.02
2019-02-04T13:11:36.256Z,63.87
2019-02-04T13:14:44.575Z,63.56
2019-02-04T13:17:13.070Z,63.29
2019-02-04T13:19:41.482Z,63.23
2019-02-04T13:22:09.891Z,63.02
2019-02-04T13:24:38.322Z,62.88
2019-02-04T13:27:25.918Z,62.87
2019-02-04T13:29:54.531Z,62.59
2019-02-04T13:32:22.928Z,62.75
2019-02-04T13:34:51.324Z,62.81
2019-02-04T13:37:19.748Z,63.02
2019-02-04T13:39:48.177Z,62.92
2019-02-04T13:42:16.592Z,62.72
2019-02-04T13:44:46.847Z,62.67
2019-02-04T13:47:15.254Z,62.61
2019-02-04T13:50:23.600Z,62.50
2019-02-04T13:53:31.912Z,62.58
2019-02-04T13:56:00.362Z,62.96
2019-02-04T13:58:49.813Z,63.23
2019-02-04T14:03:52.689Z,63.07
2019-02-04T14:06:21.146Z,63.37
2019-02-04T14:08:51.265Z,63.49
2019-02-04T14:11:39.095Z,63.66
2019-02-04T14:14:07.496Z,63.83
2019-02-04T14:16:43.281Z,63.66
2019-02-04T14:19:11.760Z,63.65
2019-02-04T14:21:40.171Z,63.99
2019-02-04T14:24:08.563Z,64.24
2019-02-04T14:26:36.988Z,64.34
2019-02-04T14:29:05.529Z,64.34
2019-02-04T14:31:35.349Z,64.44
2019-02-04T14:45:43.262Z,64.27
2019-02-04T14:48:50.253Z,64.53
2019-02-04T14:51:57.240Z,64.82
2019-02-04T14:54:38.306Z,65.20
2019-02-04T14:57:45.294Z,65.10
2019-02-04T15:00:55.303Z,65.02
2019-02-04T15:04:02.676Z,65.21
2019-02-04T15:07:11.024Z,65.32
2019-02-04T15:10:18.031Z,65.25
2019-02-04T15:13:26.726Z,65.32
2019-02-04T15:16:33.719Z,65.53
2019-02-04T15:19:40.743Z,65.70
2019-02-04T15:22:47.824Z,65.81
2019-02-04T15:25:56.503Z,65.99
2019-02-04T15:29:04.880Z,66.22
2019-02-04T15:32:11.890Z,66.39
2019-02-04T15:35:18.882Z,66.53
2019-02-04T15:38:28.023Z,66.69
2019-02-04T15:41:35.018Z,66.80
2019-02-04T15:44:43.506Z,66.84
2019-02-04T15:47:51.876Z,66.93
2019-02-04T15:51:00.309Z,67.16
2019-02-04T15:53:28.709Z,67.40
2019-02-04T15:56:16.382Z,67.56
2019-02-04T15:58:44.782Z,67.75
2019-02-04T16:04:27.788Z,67.84
2019-02-04T16:06:56.262Z,67.92
2019-02-04T16:09:24.741Z,68.00
2019-02-04T16:12:12.515Z,68.12
2019-02-04T16:15:00.355Z,68.17
2019-02-04T16:20:44.625Z,68.34
2019-02-04T16:23:13.101Z,68.40
2019-02-04T16:25:41.502Z,68.48
2019-02-04T16:33:33.787Z,68.75
2019-02-04T16:36:02.194Z,68.91
2019-02-04T16:38:30.596Z,68.93
2019-02-04T16:41:00.748Z,68.99
2019-02-04T16:43:29.158Z,69.05
2019-02-04T16:51:25.716Z,69.06
2019-02-04T16:53:54.165Z,69.03
2019-02-04T16:56:22.565Z,69.14
2019-02-04T16:59:03.695Z,69.09
2019-02-04T17:01:51.358Z,69.11
2019-02-04T17:04:19.826Z,69.08
2019-02-04T17:06:48.235Z,69.13
2019-02-04T17:09:16.647Z,69.16
2019-02-04T17:11:45.083Z,69.20
2019-02-04T17:14:15.201Z,69.26
2019-02-04T17:16:43.622Z,69.44
2019-02-04T17:22:05.720Z,69.58
2019-02-04T17:24:35.925Z,69.55
2019-02-04T17:27:23.679Z,69.60
2019-02-04T17:29:52.291Z,69.65
2019-02-04T17:32:20.693Z,69.80
2019-02-04T17:34:49.096Z,69.85
2019-02-04T17:37:17.557Z,69.92
2019-02-04T17:39:45.961Z,69.98
2019-02-04T17:42:33.628Z,70.01
2019-02-04T17:45:02.028Z,70.15
2019-02-04T17:47:32.142Z,70.33
2019-02-04T17:52:37.211Z,70.66
2019-02-04T17:55:45.520Z,70.71
2019-02-04T17:58:14.051Z,70.76
2019-02-04T18:01:01.783Z,70.70
2019-02-04T18:03:30.165Z,70.62
2019-02-04T18:05:58.806Z,70.50
2019-02-04T18:08:46.649Z,70.60
2019-02-04T18:11:15.052Z,70.62
2019-02-04T18:13:43.467Z,70.72
2019-02-04T18:16:13.630Z,70.79
2019-02-04T18:18:42.133Z,70.82
2019-02-04T18:29:32.198Z,70.84
2019-02-04T18:34:36.429Z,70.85
2019-02-04T18:37:44.865Z,70.79
2019-02-04T18:40:53.177Z,70.91
2019-02-04T18:45:56.096Z,71.13
2019-02-04T18:51:00.252Z,71.31
2019-02-04T18:53:28.734Z,71.39
2019-02-04T18:56:18.234Z,71.20
2019-02-04T19:01:21.152Z,71.25
2019-02-04T19:04:02.048Z,71.39
2019-02-04T19:06:30.640Z,71.51
2019-02-04T19:08:59.054Z,71.52
2019-02-04T19:11:27.585Z,71.44
2019-02-04T19:13:56.026Z,71.51
2019-02-04T19:19:11.909Z,71.39
2019-02-04T19:21:59.629Z,71.33
2019-02-04T19:27:21.054Z,71.20
2019-02-04T19:29:49.506Z,71.16
2019-02-04T19:32:17.911Z,71.12
2019-02-04T19:34:46.311Z,71.09
2019-02-04T19:39:49.121Z,71.22
2019-02-04T19:44:51.506Z,71.84
2019-02-04T19:47:19.938Z,71.85
2019-02-04T19:49:48.343Z,71.58
2019-02-04T19:52:16.830Z,71.46
2019-02-04T19:54:46.985Z,71.54
2019-02-04T19:57:15.399Z,71.54
2019-02-04T19:59:43.800Z,71.43
2019-02-04T20:02:52.157Z,71.57
2019-02-04T20:05:33.185Z,71.66
2019-02-04T20:13:30.435Z,71.33
2019-02-04T20:15:58.836Z,71.38
2019-02-04T20:18:46.460Z,71.42
2019-02-04T20:21:54.791Z,71.41
2019-02-04T20:24:32.880Z,71.54
2019-02-04T20:26:53.357Z,71.75
2019-02-04T20:29:24.612Z,71.78
2019-02-04T20:31:53.050Z,71.77
2019-02-04T20:34:21.456Z,71.79
2019-02-04T20:36:49.861Z,71.74
2019-02-04T20:41:52.596Z,71.59
2019-02-04T20:46:55.092Z,71.70
2019-02-04T20:51:57.488Z,71.57
2019-02-04T20:54:25.915Z,71.72
2019-02-04T20:56:54.324Z,71.70
2019-02-04T20:59:22.728Z,71.66
2019-02-04T21:04:25.716Z,71.62
2019-02-04T21:07:06.110Z,71.59
2019-02-04T21:09:34.506Z,71.59
2019-02-04T21:12:02.911Z,71.62
2019-02-04T21:14:31.348Z,71.62
2019-02-04T21:16:59.752Z,71.54
2019-02-04T21:19:28.144Z,71.51
2019-02-04T21:21:56.574Z,71.61
2019-02-04T21:24:26.738Z,71.61
2019-02-04T21:26:55.287Z,71.68
2019-02-04T21:29:23.714Z,71.66
2019-02-04T21:31:52.122Z,71.52
2019-02-04T21:34:20.532Z,71.49
2019-02-04T21:36:48.953Z,71.43
2019-02-04T21:39:19.085Z,71.43
2019-02-04T21:41:47.485Z,71.45
2019-02-04T21:46:49.393Z,71.70
2019-02-04T21:52:11.640Z,71.65
2019-02-04T21:57:14.514Z,71.98
2019-02-04T22:02:17.540Z,72.12
2019-02-04T22:07:19.957Z,72.00
2019-02-04T22:09:48.356Z,71.89
2019-02-04T22:12:18.508Z,71.95
2019-02-04T22:14:46.910Z,71.98
2019-02-04T22:17:17.030Z,72.00
2019-02-04T22:22:19.136Z,72.18
2019-02-04T22:24:47.611Z,72.23
2019-02-04T22:27:16.021Z,72.32
2019-02-04T22:29:44.431Z,72.47
2019-02-04T22:32:12.859Z,72.62
2019-02-04T22:34:45.617Z,72.59
2019-02-04T22:37:13.123Z,72.40
2019-02-04T22:39:41.555Z,72.50
2019-02-04T22:42:09.959Z,72.63
2019-02-04T22:44:38.365Z,72.70
2019-02-04T22:47:06.823Z,72.77
2019-02-04T22:49:36.942Z,72.84
2019-02-04T22:52:45.459Z,72.91
2019-02-04T22:55:55.415Z,72.75
2019-02-04T22:58:23.837Z,72.87
2019-02-04T23:01:32.214Z,73.08
2019-02-04T23:04:00.643Z,73.18
2019-02-04T23:06:29.045Z,73.00
2019-02-04T23:08:57.462Z,72.98
2019-02-04T23:12:05.981Z,72.97
2019-02-04T23:14:34.385Z,72.99
2019-02-04T23:17:44.445Z,72.96
2019-02-04T23:20:52.776Z,73.02
2019-02-04T23:25:55.500Z,73.04
2019-02-04T23:28:23.945Z,73.02
2019-02-04T23:30:52.350Z,73.14
2019-02-04T23:33:20.767Z,73.28
2019-02-04T23:38:22.763Z,73.52
2019-02-04T23:40:51.165Z,73.34
2019-02-04T23:45:53.202Z,73.36
2019-02-04T23:48:21.628Z,73.44
2019-02-04T23:50:50.021Z,73.36
2019-02-04T23:53:18.492Z,73.24
2019-02-04T23:59:00.354Z,73.31
